sensor_id;sensor_type;location;lat;lon;timestamp;P1;durP1;ratioP1;P2;durP2;ratioP2
61675;SDS011;47574;52.090;5.244;2023-08-20T00:00:08;9.81;;;2.9;;
61675;SDS011;47574;52.090;5.244;2023-08-20T00:03:29;8.2;;;2.8;;
61675;SDS011;47574;52.090;5.244;2023-08-20T00:05:07;6.8;;;2.8;;
61675;SDS011;47574;52.090;5.244;2023-08-20T00:06:45;7.0;;;2.31;;
61675;SDS011;47574;52.090;5.244;2023-08-20T00:08:22;10.9;;;3.0;;
61675;SDS011;47574;52.090;5.244;2023-08-20T00:11:36;7.7;;;3.0;;
61675;SDS011;47574;52.090;5.244;2023-08-20T00:13:12;7.7;;;3.0;;
61675;SDS011;47574;52.090;5.244;2023-08-20T00:14:52;7.7;;;3.0;;
61675;SDS011;47574;52.090;5.244;2023-08-20T00:18:08;8.71;;;2.7;;
61675;SDS011;47574;52.090;5.244;2023-08-20T00:19:45;6.5;;;2.6;;
61675;SDS011;47574;52.090;5.244;2023-08-20T00:21:23;5.9;;;2.9;;
61675;SDS011;47574;52.090;5.244;2023-08-20T00:23:02;8.0;;;3.0;;
61675;SDS011;47574;52.090;5.244;2023-08-20T00:26:18;8.0;;;3.0;;
61675;SDS011;47574;52.090;5.244;2023-08-20T00:27:55;7.6;;;2.9;;
61675;SDS011;47574;52.090;5.244;2023-08-20T00:29:31;10.6;;;3.3;;
61675;SDS011;47574;52.090;5.244;2023-08-20T00:32:44;6.7;;;3.0;;
61675;SDS011;47574;52.090;5.244;2023-08-20T00:34:20;6.6;;;3.0;;
61675;SDS011;47574;52.090;5.244;2023-08-20T00:35:56;6.6;;;3.0;;
61675;SDS011;47574;52.090;5.244;2023-08-20T00:37:33;6.9;;;3.1;;
61675;SDS011;47574;52.090;5.244;2023-08-20T00:40:47;7.3;;;3.0;;
61675;SDS011;47574;52.090;5.244;2023-08-20T00:42:24;6.9;;;2.9;;
61675;SDS011;47574;52.090;5.244;2023-08-20T00:44:01;7.7;;;2.8;;
61675;SDS011;47574;52.090;5.244;2023-08-20T00:47:18;5.4;;;3.1;;
61675;SDS011;47574;52.090;5.244;2023-08-20T00:48:55;10.7;;;3.0;;
61675;SDS011;47574;52.090;5.244;2023-08-20T00:50:32;8.81;;;3.1;;
61675;SDS011;47574;52.090;5.244;2023-08-20T00:52:11;9.81;;;3.4;;
61675;SDS011;47574;52.090;5.244;2023-08-20T00:55:26;8.31;;;3.1;;
61675;SDS011;47574;52.090;5.244;2023-08-20T00:57:03;8.31;;;3.7;;
61675;SDS011;47574;52.090;5.244;2023-08-20T00:58:42;7.9;;;3.1;;
61675;SDS011;47574;52.090;5.244;2023-08-20T01:01:59;7.7;;;2.9;;
61675;SDS011;47574;52.090;5.244;2023-08-20T01:03:37;7.5;;;3.6;;
61675;SDS011;47574;52.090;5.244;2023-08-20T01:05:13;7.1;;;3.3;;
61675;SDS011;47574;52.090;5.244;2023-08-20T01:06:53;8.4;;;3.5;;
61675;SDS011;47574;52.090;5.244;2023-08-20T01:10:18;11.0;;;4.0;;
61675;SDS011;47574;52.090;5.244;2023-08-20T01:12:02;7.7;;;3.4;;
61675;SDS011;47574;52.090;5.244;2023-08-20T01:13:39;9.81;;;3.3;;
61675;SDS011;47574;52.090;5.244;2023-08-20T01:15:16;9.4;;;3.8;;
61675;SDS011;47574;52.090;5.244;2023-08-20T01:18:29;7.1;;;4.0;;
61675;SDS011;47574;52.090;5.244;2023-08-20T01:20:06;12.1;;;4.2;;
61675;SDS011;47574;52.090;5.244;2023-08-20T01:21:46;6.6;;;3.7;;
61675;SDS011;47574;52.090;5.244;2023-08-20T01:23:51;8.5;;;4.1;;
61675;SDS011;47574;52.090;5.244;2023-08-20T01:25:42;10.9;;;4.61;;
61675;SDS011;47574;52.090;5.244;2023-08-20T01:29:34;8.5;;;3.7;;
61675;SDS011;47574;52.090;5.244;2023-08-20T01:31:12;9.6;;;4.41;;
61675;SDS011;47574;52.090;5.244;2023-08-20T01:32:52;8.31;;;3.8;;
61675;SDS011;47574;52.090;5.244;2023-08-20T01:34:29;11.8;;;4.1;;
61675;SDS011;47574;52.090;5.244;2023-08-20T01:36:07;12.6;;;4.3;;
61675;SDS011;47574;52.090;5.244;2023-08-20T01:39:21;10.21;;;4.3;;
61675;SDS011;47574;52.090;5.244;2023-08-20T01:40:57;10.1;;;3.8;;
61675;SDS011;47574;52.090;5.244;2023-08-20T01:42:34;11.3;;;3.8;;
61675;SDS011;47574;52.090;5.244;2023-08-20T01:45:48;10.0;;;4.0;;
61675;SDS011;47574;52.090;5.244;2023-08-20T01:47:24;10.5;;;4.0;;
61675;SDS011;47574;52.090;5.244;2023-08-20T01:49:01;10.6;;;4.1;;
61675;SDS011;47574;52.090;5.244;2023-08-20T01:52:15;10.0;;;3.8;;
61675;SDS011;47574;52.090;5.244;2023-08-20T01:53:51;7.9;;;4.1;;
61675;SDS011;47574;52.090;5.244;2023-08-20T01:55:28;9.21;;;3.7;;
61675;SDS011;47574;52.090;5.244;2023-08-20T01:57:04;8.31;;;3.7;;
61675;SDS011;47574;52.090;5.244;2023-08-20T02:00:18;8.1;;;3.4;;
61675;SDS011;47574;52.090;5.244;2023-08-20T02:01:55;12.2;;;3.8;;
61675;SDS011;47574;52.090;5.244;2023-08-20T02:03:31;9.71;;;3.4;;
61675;SDS011;47574;52.090;5.244;2023-08-20T02:06:44;9.71;;;3.3;;
61675;SDS011;47574;52.090;5.244;2023-08-20T02:08:20;5.9;;;2.9;;
61675;SDS011;47574;52.090;5.244;2023-08-20T02:09:57;9.21;;;3.6;;
61675;SDS011;47574;52.090;5.244;2023-08-20T02:13:10;9.21;;;3.6;;
61675;SDS011;47574;52.090;5.244;2023-08-20T02:14:47;6.9;;;3.4;;
61675;SDS011;47574;52.090;5.244;2023-08-20T02:16:24;10.3;;;3.8;;
61675;SDS011;47574;52.090;5.244;2023-08-20T02:18:00;9.4;;;3.5;;
61675;SDS011;47574;52.090;5.244;2023-08-20T02:21:14;9.1;;;3.7;;
61675;SDS011;47574;52.090;5.244;2023-08-20T02:22:50;8.6;;;3.8;;
61675;SDS011;47574;52.090;5.244;2023-08-20T02:24:27;10.9;;;3.8;;
61675;SDS011;47574;52.090;5.244;2023-08-20T02:27:41;9.9;;;3.3;;
61675;SDS011;47574;52.090;5.244;2023-08-20T02:29:17;8.6;;;3.3;;
61675;SDS011;47574;52.090;5.244;2023-08-20T02:30:53;6.9;;;3.2;;
61675;SDS011;47574;52.090;5.244;2023-08-20T02:34:07;8.5;;;3.5;;
61675;SDS011;47574;52.090;5.244;2023-08-20T02:37:21;9.4;;;3.7;;
61675;SDS011;47574;52.090;5.244;2023-08-20T02:38:58;10.3;;;3.7;;
61675;SDS011;47574;52.090;5.244;2023-08-20T02:42:16;11.3;;;3.6;;
61675;SDS011;47574;52.090;5.244;2023-08-20T02:43:52;10.21;;;3.3;;
61675;SDS011;47574;52.090;5.244;2023-08-20T02:45:28;8.31;;;3.7;;
61675;SDS011;47574;52.090;5.244;2023-08-20T02:48:42;7.3;;;3.7;;
61675;SDS011;47574;52.090;5.244;2023-08-20T02:50:19;8.2;;;3.8;;
61675;SDS011;47574;52.090;5.244;2023-08-20T02:51:55;9.6;;;3.7;;
61675;SDS011;47574;52.090;5.244;2023-08-20T02:53:32;8.5;;;3.6;;
61675;SDS011;47574;52.090;5.244;2023-08-20T02:56:46;8.9;;;4.1;;
61675;SDS011;47574;52.090;5.244;2023-08-20T02:58:23;10.4;;;4.1;;
61675;SDS011;47574;52.090;5.244;2023-08-20T03:00:00;8.81;;;3.8;;
61675;SDS011;47574;52.090;5.244;2023-08-20T03:03:15;10.1;;;4.1;;
61675;SDS011;47574;52.090;5.244;2023-08-20T03:04:51;8.71;;;4.0;;
61675;SDS011;47574;52.090;5.244;2023-08-20T03:06:28;8.2;;;3.9;;
61675;SDS011;47574;52.090;5.244;2023-08-20T03:09:42;10.1;;;3.7;;
61675;SDS011;47574;52.090;5.244;2023-08-20T03:11:19;8.6;;;4.3;;
61675;SDS011;47574;52.090;5.244;2023-08-20T03:12:55;9.31;;;3.8;;
61675;SDS011;47574;52.090;5.244;2023-08-20T03:14:32;9.71;;;4.0;;
61675;SDS011;47574;52.090;5.244;2023-08-20T03:17:45;12.6;;;4.0;;
61675;SDS011;47574;52.090;5.244;2023-08-20T03:19:21;10.7;;;3.7;;
61675;SDS011;47574;52.090;5.244;2023-08-20T03:20:58;8.81;;;3.8;;
61675;SDS011;47574;52.090;5.244;2023-08-20T03:24:14;11.4;;;4.0;;
61675;SDS011;47574;52.090;5.244;2023-08-20T03:25:50;7.7;;;3.5;;
61675;SDS011;47574;52.090;5.244;2023-08-20T03:27:27;9.21;;;3.8;;
61675;SDS011;47574;52.090;5.244;2023-08-20T03:29:04;10.8;;;4.0;;
61675;SDS011;47574;52.090;5.244;2023-08-20T03:32:17;8.4;;;3.7;;
61675;SDS011;47574;52.090;5.244;2023-08-20T03:33:54;9.6;;;3.3;;
61675;SDS011;47574;52.090;5.244;2023-08-20T03:35:31;9.31;;;4.0;;
61675;SDS011;47574;52.090;5.244;2023-08-20T03:38:43;8.6;;;3.7;;
61675;SDS011;47574;52.090;5.244;2023-08-20T03:40:19;9.5;;;3.8;;
61675;SDS011;47574;52.090;5.244;2023-08-20T03:41:56;7.5;;;3.8;;
61675;SDS011;47574;52.090;5.244;2023-08-20T03:45:10;9.31;;;3.7;;
61675;SDS011;47574;52.090;5.244;2023-08-20T03:46:47;9.71;;;3.7;;
61675;SDS011;47574;52.090;5.244;2023-08-20T03:48:23;9.81;;;3.8;;
61675;SDS011;47574;52.090;5.244;2023-08-20T03:50:00;12.4;;;4.3;;
61675;SDS011;47574;52.090;5.244;2023-08-20T03:53:12;11.5;;;4.3;;
61675;SDS011;47574;52.090;5.244;2023-08-20T03:54:50;9.31;;;3.9;;
61675;SDS011;47574;52.090;5.244;2023-08-20T03:56:27;10.7;;;4.3;;
61675;SDS011;47574;52.090;5.244;2023-08-20T03:59:40;10.5;;;4.5;;
61675;SDS011;47574;52.090;5.244;2023-08-20T04:01:16;10.3;;;4.3;;
61675;SDS011;47574;52.090;5.244;2023-08-20T04:02:53;10.5;;;4.3;;
61675;SDS011;47574;52.090;5.244;2023-08-20T04:06:07;10.21;;;4.2;;
61675;SDS011;47574;52.090;5.244;2023-08-20T04:07:43;9.9;;;4.1;;
61675;SDS011;47574;52.090;5.244;2023-08-20T04:09:20;10.9;;;3.7;;
61675;SDS011;47574;52.090;5.244;2023-08-20T04:10:56;8.9;;;3.7;;
61675;SDS011;47574;52.090;5.244;2023-08-20T04:14:09;11.2;;;4.0;;
61675;SDS011;47574;52.090;5.244;2023-08-20T04:15:46;12.0;;;3.8;;
61675;SDS011;47574;52.090;5.244;2023-08-20T04:17:23;11.0;;;4.1;;
61675;SDS011;47574;52.090;5.244;2023-08-20T04:20:37;7.8;;;3.9;;
61675;SDS011;47574;52.090;5.244;2023-08-20T04:22:13;10.4;;;4.2;;
61675;SDS011;47574;52.090;5.244;2023-08-20T04:23:50;11.2;;;4.3;;
61675;SDS011;47574;52.090;5.244;2023-08-20T04:27:02;11.4;;;4.1;;
61675;SDS011;47574;52.090;5.244;2023-08-20T04:28:39;9.6;;;4.2;;
61675;SDS011;47574;52.090;5.244;2023-08-20T04:30:16;9.21;;;4.1;;
61675;SDS011;47574;52.090;5.244;2023-08-20T04:31:53;5.7;;;2.9;;
61675;SDS011;47574;52.090;5.244;2023-08-20T04:35:06;5.7;;;3.1;;
61675;SDS011;47574;52.090;5.244;2023-08-20T04:36:43;5.3;;;2.9;;
61675;SDS011;47574;52.090;5.244;2023-08-20T04:38:20;7.5;;;3.2;;
61675;SDS011;47574;52.090;5.244;2023-08-20T04:41:34;7.5;;;3.3;;
61675;SDS011;47574;52.090;5.244;2023-08-20T04:43:10;6.9;;;3.2;;
61675;SDS011;47574;52.090;5.244;2023-08-20T04:44:47;7.1;;;3.4;;
61675;SDS011;47574;52.090;5.244;2023-08-20T04:48:00;6.3;;;3.2;;
61675;SDS011;47574;52.090;5.244;2023-08-20T04:49:37;9.21;;;3.6;;
61675;SDS011;47574;52.090;5.244;2023-08-20T04:51:14;6.8;;;3.5;;
61675;SDS011;47574;52.090;5.244;2023-08-20T04:52:50;7.8;;;3.7;;
61675;SDS011;47574;52.090;5.244;2023-08-20T04:56:04;10.21;;;3.8;;
61675;SDS011;47574;52.090;5.244;2023-08-20T04:57:41;7.7;;;3.5;;
61675;SDS011;47574;52.090;5.244;2023-08-20T04:59:18;7.5;;;3.5;;
61675;SDS011;47574;52.090;5.244;2023-08-20T05:02:31;9.71;;;3.5;;
61675;SDS011;47574;52.090;5.244;2023-08-20T05:04:08;8.6;;;3.5;;
61675;SDS011;47574;52.090;5.244;2023-08-20T05:05:48;7.0;;;3.5;;
61675;SDS011;47574;52.090;5.244;2023-08-20T05:07:25;9.71;;;4.0;;
61675;SDS011;47574;52.090;5.244;2023-08-20T05:10:38;9.0;;;4.1;;
61675;SDS011;47574;52.090;5.244;2023-08-20T05:12:15;8.71;;;3.7;;
61675;SDS011;47574;52.090;5.244;2023-08-20T05:13:52;8.2;;;3.6;;
61675;SDS011;47574;52.090;5.244;2023-08-20T05:17:08;6.3;;;3.0;;
61675;SDS011;47574;52.090;5.244;2023-08-20T05:18:45;5.8;;;3.1;;
61675;SDS011;47574;52.090;5.244;2023-08-20T05:20:22;8.1;;;3.5;;
61675;SDS011;47574;52.090;5.244;2023-08-20T05:23:35;8.71;;;3.6;;
61675;SDS011;47574;52.090;5.244;2023-08-20T05:25:12;9.4;;;3.2;;
61675;SDS011;47574;52.090;5.244;2023-08-20T05:26:49;8.31;;;3.7;;
61675;SDS011;47574;52.090;5.244;2023-08-20T05:28:40;10.6;;;3.8;;
61675;SDS011;47574;52.090;5.244;2023-08-20T05:31:53;9.21;;;3.6;;
61675;SDS011;47574;52.090;5.244;2023-08-20T05:33:30;9.0;;;3.7;;
61675;SDS011;47574;52.090;5.244;2023-08-20T05:35:07;6.5;;;3.3;;
61675;SDS011;47574;52.090;5.244;2023-08-20T05:36:44;7.9;;;3.6;;
61675;SDS011;47574;52.090;5.244;2023-08-20T05:39:58;5.2;;;3.1;;
61675;SDS011;47574;52.090;5.244;2023-08-20T05:41:35;7.3;;;3.3;;
61675;SDS011;47574;52.090;5.244;2023-08-20T05:43:11;8.31;;;3.7;;
61675;SDS011;47574;52.090;5.244;2023-08-20T05:46:24;7.5;;;3.3;;
61675;SDS011;47574;52.090;5.244;2023-08-20T05:48:01;10.0;;;3.4;;
61675;SDS011;47574;52.090;5.244;2023-08-20T05:49:37;11.0;;;3.9;;
61675;SDS011;47574;52.090;5.244;2023-08-20T05:52:50;12.3;;;3.6;;
61675;SDS011;47574;52.090;5.244;2023-08-20T05:54:27;9.0;;;4.0;;
61675;SDS011;47574;52.090;5.244;2023-08-20T05:56:04;8.1;;;3.3;;
61675;SDS011;47574;52.090;5.244;2023-08-20T05:57:40;7.7;;;3.9;;
61675;SDS011;47574;52.090;5.244;2023-08-20T06:00:54;11.1;;;3.7;;
61675;SDS011;47574;52.090;5.244;2023-08-20T06:02:31;8.6;;;3.8;;
61675;SDS011;47574;52.090;5.244;2023-08-20T06:04:07;5.6;;;3.5;;
61675;SDS011;47574;52.090;5.244;2023-08-20T06:07:22;6.5;;;3.5;;
61675;SDS011;47574;52.090;5.244;2023-08-20T06:08:59;6.0;;;3.4;;
61675;SDS011;47574;52.090;5.244;2023-08-20T06:10:35;8.5;;;3.5;;
61675;SDS011;47574;52.090;5.244;2023-08-20T06:13:50;9.0;;;3.1;;
61675;SDS011;47574;52.090;5.244;2023-08-20T06:15:27;9.4;;;3.7;;
61675;SDS011;47574;52.090;5.244;2023-08-20T06:17:04;11.0;;;3.5;;
61675;SDS011;47574;52.090;5.244;2023-08-20T06:18:41;8.31;;;3.1;;
61675;SDS011;47574;52.090;5.244;2023-08-20T06:21:53;6.4;;;3.1;;
61675;SDS011;47574;52.090;5.244;2023-08-20T06:23:30;8.9;;;3.4;;
61675;SDS011;47574;52.090;5.244;2023-08-20T06:25:07;7.0;;;3.1;;
61675;SDS011;47574;52.090;5.244;2023-08-20T06:28:21;9.71;;;3.6;;
61675;SDS011;47574;52.090;5.244;2023-08-20T06:29:57;9.5;;;3.5;;
61675;SDS011;47574;52.090;5.244;2023-08-20T06:31:34;7.2;;;3.0;;
61675;SDS011;47574;52.090;5.244;2023-08-20T06:33:11;10.5;;;3.2;;
61675;SDS011;47574;52.090;5.244;2023-08-20T06:36:24;9.4;;;3.6;;
61675;SDS011;47574;52.090;5.244;2023-08-20T06:38:01;9.4;;;3.0;;
61675;SDS011;47574;52.090;5.244;2023-08-20T06:39:39;8.0;;;3.1;;
61675;SDS011;47574;52.090;5.244;2023-08-20T06:42:53;10.1;;;3.0;;
61675;SDS011;47574;52.090;5.244;2023-08-20T06:44:31;7.4;;;3.3;;
61675;SDS011;47574;52.090;5.244;2023-08-20T06:46:07;8.71;;;2.9;;
61675;SDS011;47574;52.090;5.244;2023-08-20T06:49:20;8.71;;;3.0;;
61675;SDS011;47574;52.090;5.244;2023-08-20T06:50:57;6.7;;;2.8;;
61675;SDS011;47574;52.090;5.244;2023-08-20T06:52:33;9.4;;;2.6;;
61675;SDS011;47574;52.090;5.244;2023-08-20T06:54:09;6.7;;;2.7;;
61675;SDS011;47574;52.090;5.244;2023-08-20T06:57:21;7.1;;;2.5;;
61675;SDS011;47574;52.090;5.244;2023-08-20T06:58:58;9.81;;;2.6;;
61675;SDS011;47574;52.090;5.244;2023-08-20T07:00:36;10.4;;;3.1;;
61675;SDS011;47574;52.090;5.244;2023-08-20T07:03:50;8.5;;;2.7;;
61675;SDS011;47574;52.090;5.244;2023-08-20T07:05:27;10.0;;;2.9;;
61675;SDS011;47574;52.090;5.244;2023-08-20T07:07:04;12.3;;;3.0;;
61675;SDS011;47574;52.090;5.244;2023-08-20T07:10:17;11.7;;;3.2;;
61675;SDS011;47574;52.090;5.244;2023-08-20T07:11:54;10.21;;;2.7;;
61675;SDS011;47574;52.090;5.244;2023-08-20T07:13:31;11.1;;;2.6;;
61675;SDS011;47574;52.090;5.244;2023-08-20T07:15:08;10.0;;;2.4;;
61675;SDS011;47574;52.090;5.244;2023-08-20T07:18:21;8.2;;;2.5;;
61675;SDS011;47574;52.090;5.244;2023-08-20T07:19:58;5.11;;;2.21;;
61675;SDS011;47574;52.090;5.244;2023-08-20T07:21:35;7.4;;;1.9;;
61675;SDS011;47574;52.090;5.244;2023-08-20T07:24:49;7.1;;;2.1;;
61675;SDS011;47574;52.090;5.244;2023-08-20T07:26:26;8.2;;;2.31;;
61675;SDS011;47574;52.090;5.244;2023-08-20T07:28:03;8.6;;;2.21;;
61675;SDS011;47574;52.090;5.244;2023-08-20T07:29:40;7.8;;;2.31;;
61675;SDS011;47574;52.090;5.244;2023-08-20T07:32:54;8.81;;;2.31;;
61675;SDS011;47574;52.090;5.244;2023-08-20T07:34:31;8.81;;;2.4;;
61675;SDS011;47574;52.090;5.244;2023-08-20T07:36:08;5.5;;;2.0;;
61675;SDS011;47574;52.090;5.244;2023-08-20T07:39:23;9.1;;;2.21;;
61675;SDS011;47574;52.090;5.244;2023-08-20T07:41:00;10.21;;;2.5;;
61675;SDS011;47574;52.090;5.244;2023-08-20T07:42:37;7.8;;;2.1;;
61675;SDS011;47574;52.090;5.244;2023-08-20T07:45:50;7.7;;;2.21;;
61675;SDS011;47574;52.090;5.244;2023-08-20T07:47:27;9.71;;;2.21;;
61675;SDS011;47574;52.090;5.244;2023-08-20T07:49:04;11.1;;;2.21;;
61675;SDS011;47574;52.090;5.244;2023-08-20T07:50:41;7.3;;;2.0;;
61675;SDS011;47574;52.090;5.244;2023-08-20T07:53:55;7.6;;;2.1;;
61675;SDS011;47574;52.090;5.244;2023-08-20T07:55:32;6.2;;;2.0;;
61675;SDS011;47574;52.090;5.244;2023-08-20T07:57:09;7.7;;;1.8;;
61675;SDS011;47574;52.090;5.244;2023-08-20T08:00:23;9.9;;;2.0;;
61675;SDS011;47574;52.090;5.244;2023-08-20T08:01:59;7.5;;;1.4;;
61675;SDS011;47574;52.090;5.244;2023-08-20T08:03:36;8.0;;;1.8;;
61675;SDS011;47574;52.090;5.244;2023-08-20T08:05:13;8.6;;;2.0;;
61675;SDS011;47574;52.090;5.244;2023-08-20T08:08:28;8.71;;;2.0;;
61675;SDS011;47574;52.090;5.244;2023-08-20T08:10:05;9.31;;;1.9;;
61675;SDS011;47574;52.090;5.244;2023-08-20T08:11:42;6.3;;;1.8;;
61675;SDS011;47574;52.090;5.244;2023-08-20T08:14:59;4.91;;;1.5;;
61675;SDS011;47574;52.090;5.244;2023-08-20T08:16:35;6.7;;;1.6;;
61675;SDS011;47574;52.090;5.244;2023-08-20T08:18:11;5.2;;;1.2;;
61675;SDS011;47574;52.090;5.244;2023-08-20T08:21:26;6.0;;;1.5;;
61675;SDS011;47574;52.090;5.244;2023-08-20T08:23:03;8.81;;;2.0;;
61675;SDS011;47574;52.090;5.244;2023-08-20T08:24:40;4.5;;;1.4;;
61675;SDS011;47574;52.090;5.244;2023-08-20T08:26:17;5.4;;;1.6;;
61675;SDS011;47574;52.090;5.244;2023-08-20T08:29:30;7.7;;;1.7;;
61675;SDS011;47574;52.090;5.244;2023-08-20T08:31:07;5.5;;;1.4;;
61675;SDS011;47574;52.090;5.244;2023-08-20T08:32:44;5.3;;;1.5;;
61675;SDS011;47574;52.090;5.244;2023-08-20T08:35:58;4.3;;;1.2;;
61675;SDS011;47574;52.090;5.244;2023-08-20T08:37:35;6.0;;;1.4;;
61675;SDS011;47574;52.090;5.244;2023-08-20T08:39:12;7.9;;;1.5;;
61675;SDS011;47574;52.090;5.244;2023-08-20T08:40:49;5.7;;;1.4;;
61675;SDS011;47574;52.090;5.244;2023-08-20T08:44:03;5.5;;;1.5;;
61675;SDS011;47574;52.090;5.244;2023-08-20T08:45:45;8.31;;;1.8;;
61675;SDS011;47574;52.090;5.244;2023-08-20T08:47:22;5.0;;;1.5;;
61675;SDS011;47574;52.090;5.244;2023-08-20T08:50:39;3.9;;;1.3;;
61675;SDS011;47574;52.090;5.244;2023-08-20T08:52:16;5.7;;;1.4;;
61675;SDS011;47574;52.090;5.244;2023-08-20T08:53:54;6.6;;;1.6;;
61675;SDS011;47574;52.090;5.244;2023-08-20T08:55:32;7.5;;;2.1;;
61675;SDS011;47574;52.090;5.244;2023-08-20T08:58:47;4.3;;;1.4;;
61675;SDS011;47574;52.090;5.244;2023-08-20T09:00:24;6.1;;;1.6;;
61675;SDS011;47574;52.090;5.244;2023-08-20T09:02:00;6.5;;;1.5;;
61675;SDS011;47574;52.090;5.244;2023-08-20T09:05:15;6.2;;;1.8;;
61675;SDS011;47574;52.090;5.244;2023-08-20T09:06:52;7.4;;;1.7;;
61675;SDS011;47574;52.090;5.244;2023-08-20T09:08:31;5.8;;;1.5;;
61675;SDS011;47574;52.090;5.244;2023-08-20T09:10:08;4.41;;;1.0;;
61675;SDS011;47574;52.090;5.244;2023-08-20T09:13:23;4.3;;;1.3;;
61675;SDS011;47574;52.090;5.244;2023-08-20T09:15:00;6.1;;;1.11;;
61675;SDS011;47574;52.090;5.244;2023-08-20T09:16:37;6.6;;;1.3;;
61675;SDS011;47574;52.090;5.244;2023-08-20T09:19:52;4.61;;;1.2;;
61675;SDS011;47574;52.090;5.244;2023-08-20T09:21:31;4.2;;;1.2;;
61675;SDS011;47574;52.090;5.244;2023-08-20T09:23:10;5.9;;;1.11;;
61675;SDS011;47574;52.090;5.244;2023-08-20T09:24:51;7.6;;;1.4;;
61675;SDS011;47574;52.090;5.244;2023-08-20T09:29:45;4.0;;;0.9;;
61675;SDS011;47574;52.090;5.244;2023-08-20T09:31:37;3.4;;;0.8;;
61675;SDS011;47574;52.090;5.244;2023-08-20T09:33:16;3.1;;;0.9;;
61675;SDS011;47574;52.090;5.244;2023-08-20T09:36:32;4.5;;;1.11;;
61675;SDS011;47574;52.090;5.244;2023-08-20T09:38:10;4.61;;;1.2;;
61675;SDS011;47574;52.090;5.244;2023-08-20T09:39:47;5.9;;;1.3;;
61675;SDS011;47574;52.090;5.244;2023-08-20T09:43:02;6.5;;;1.4;;
61675;SDS011;47574;52.090;5.244;2023-08-20T09:44:41;4.5;;;1.3;;
61675;SDS011;47574;52.090;5.244;2023-08-20T09:46:20;4.5;;;1.0;;
61675;SDS011;47574;52.090;5.244;2023-08-20T09:48:00;2.0;;;0.7;;
61675;SDS011;47574;52.090;5.244;2023-08-20T09:51:25;2.7;;;0.8;;
61675;SDS011;47574;52.090;5.244;2023-08-20T09:53:03;2.31;;;0.9;;
61675;SDS011;47574;52.090;5.244;2023-08-20T09:54:50;2.7;;;1.0;;
61675;SDS011;47574;52.090;5.244;2023-08-20T09:56:37;2.1;;;0.8;;
61675;SDS011;47574;52.090;5.244;2023-08-20T09:58:15;3.8;;;1.0;;
61675;SDS011;47574;52.090;5.244;2023-08-20T10:01:31;2.6;;;1.0;;
61675;SDS011;47574;52.090;5.244;2023-08-20T10:03:09;1.8;;;0.7;;
61675;SDS011;47574;52.090;5.244;2023-08-20T10:04:45;3.0;;;0.8;;
61675;SDS011;47574;52.090;5.244;2023-08-20T10:08:06;2.4;;;0.8;;
61675;SDS011;47574;52.090;5.244;2023-08-20T10:09:44;3.7;;;0.7;;
61675;SDS011;47574;52.090;5.244;2023-08-20T10:11:22;4.0;;;0.8;;
61675;SDS011;47574;52.090;5.244;2023-08-20T10:12:59;2.5;;;0.8;;
61675;SDS011;47574;52.090;5.244;2023-08-20T10:16:15;2.7;;;0.9;;
61675;SDS011;47574;52.090;5.244;2023-08-20T10:17:53;3.7;;;1.11;;
61675;SDS011;47574;52.090;5.244;2023-08-20T10:19:29;3.6;;;1.0;;
61675;SDS011;47574;52.090;5.244;2023-08-20T10:22:44;3.6;;;0.8;;
61675;SDS011;47574;52.090;5.244;2023-08-20T10:24:22;3.5;;;0.9;;
61675;SDS011;47574;52.090;5.244;2023-08-20T10:26:06;2.6;;;0.5;;
61675;SDS011;47574;52.090;5.244;2023-08-20T10:27:44;2.9;;;0.9;;
61675;SDS011;47574;52.090;5.244;2023-08-20T10:31:16;3.3;;;0.9;;
61675;SDS011;47574;52.090;5.244;2023-08-20T10:32:53;2.4;;;0.7;;
61675;SDS011;47574;52.090;5.244;2023-08-20T10:34:32;2.31;;;0.8;;
61675;SDS011;47574;52.090;5.244;2023-08-20T10:36:13;3.3;;;1.0;;
61675;SDS011;47574;52.090;5.244;2023-08-20T10:39:53;4.2;;;0.8;;
61675;SDS011;47574;52.090;5.244;2023-08-20T10:41:29;3.3;;;0.9;;
61675;SDS011;47574;52.090;5.244;2023-08-20T10:43:06;4.41;;;1.5;;
61675;SDS011;47574;52.090;5.244;2023-08-20T10:44:58;3.3;;;0.7;;
61675;SDS011;47574;52.090;5.244;2023-08-20T10:46:36;3.9;;;0.8;;
61675;SDS011;47574;52.090;5.244;2023-08-20T10:48:26;4.0;;;1.11;;
61675;SDS011;47574;52.090;5.244;2023-08-20T10:51:41;1.7;;;0.6;;
61675;SDS011;47574;52.090;5.244;2023-08-20T10:53:17;2.9;;;0.8;;
61675;SDS011;47574;52.090;5.244;2023-08-20T10:54:58;4.1;;;1.11;;
61675;SDS011;47574;52.090;5.244;2023-08-20T10:58:23;3.1;;;0.8;;
61675;SDS011;47574;52.090;5.244;2023-08-20T11:00:01;4.8;;;0.9;;
61675;SDS011;47574;52.090;5.244;2023-08-20T11:01:43;2.0;;;0.8;;
61675;SDS011;47574;52.090;5.244;2023-08-20T11:03:21;2.9;;;0.7;;
61675;SDS011;47574;52.090;5.244;2023-08-20T11:06:36;4.1;;;1.11;;
61675;SDS011;47574;52.090;5.244;2023-08-20T11:08:14;3.5;;;0.9;;
61675;SDS011;47574;52.090;5.244;2023-08-20T11:09:52;4.61;;;0.9;;
61675;SDS011;47574;52.090;5.244;2023-08-20T11:11:29;3.4;;;0.7;;
61675;SDS011;47574;52.090;5.244;2023-08-20T11:14:44;2.6;;;0.8;;
61675;SDS011;47574;52.090;5.244;2023-08-20T11:16:22;4.7;;;0.7;;
61675;SDS011;47574;52.090;5.244;2023-08-20T11:17:59;5.11;;;0.9;;
61675;SDS011;47574;52.090;5.244;2023-08-20T11:21:14;3.2;;;0.9;;
61675;SDS011;47574;52.090;5.244;2023-08-20T11:22:51;3.1;;;1.0;;
61675;SDS011;47574;52.090;5.244;2023-08-20T11:24:28;4.0;;;0.9;;
61675;SDS011;47574;52.090;5.244;2023-08-20T11:26:05;3.8;;;0.9;;
61675;SDS011;47574;52.090;5.244;2023-08-20T11:29:20;3.1;;;1.2;;
61675;SDS011;47574;52.090;5.244;2023-08-20T11:30:57;4.41;;;0.8;;
61675;SDS011;47574;52.090;5.244;2023-08-20T11:32:34;4.0;;;0.8;;
61675;SDS011;47574;52.090;5.244;2023-08-20T11:35:48;3.2;;;0.8;;
61675;SDS011;47574;52.090;5.244;2023-08-20T11:37:26;2.21;;;0.7;;
61675;SDS011;47574;52.090;5.244;2023-08-20T11:39:03;1.7;;;0.7;;
61675;SDS011;47574;52.090;5.244;2023-08-20T11:42:17;2.5;;;0.7;;
61675;SDS011;47574;52.090;5.244;2023-08-20T11:43:56;2.6;;;0.8;;
61675;SDS011;47574;52.090;5.244;2023-08-20T11:45:33;2.9;;;0.6;;
61675;SDS011;47574;52.090;5.244;2023-08-20T11:47:20;3.2;;;1.0;;
61675;SDS011;47574;52.090;5.244;2023-08-20T11:50:36;2.5;;;0.9;;
61675;SDS011;47574;52.090;5.244;2023-08-20T11:52:12;2.7;;;0.9;;
61675;SDS011;47574;52.090;5.244;2023-08-20T11:53:49;3.2;;;0.8;;
61675;SDS011;47574;52.090;5.244;2023-08-20T11:55:29;3.0;;;0.9;;
61675;SDS011;47574;52.090;5.244;2023-08-20T11:58:43;4.2;;;0.8;;
61675;SDS011;47574;52.090;5.244;2023-08-20T12:00:26;3.3;;;0.7;;
61675;SDS011;47574;52.090;5.244;2023-08-20T12:02:04;2.9;;;0.7;;
61675;SDS011;47574;52.090;5.244;2023-08-20T12:05:20;3.1;;;0.9;;
61675;SDS011;47574;52.090;5.244;2023-08-20T12:07:02;2.7;;;0.6;;
61675;SDS011;47574;52.090;5.244;2023-08-20T12:08:40;2.9;;;0.8;;
61675;SDS011;47574;52.090;5.244;2023-08-20T12:10:20;2.9;;;0.9;;
61675;SDS011;47574;52.090;5.244;2023-08-20T12:13:35;3.8;;;1.0;;
61675;SDS011;47574;52.090;5.244;2023-08-20T12:15:12;3.9;;;0.9;;
61675;SDS011;47574;52.090;5.244;2023-08-20T12:16:49;3.4;;;0.9;;
61675;SDS011;47574;52.090;5.244;2023-08-20T12:18:29;2.1;;;0.7;;
61675;SDS011;47574;52.090;5.244;2023-08-20T12:21:44;4.1;;;1.0;;
61675;SDS011;47574;52.090;5.244;2023-08-20T12:23:21;3.9;;;0.7;;
61675;SDS011;47574;52.090;5.244;2023-08-20T12:24:57;3.9;;;1.3;;
61675;SDS011;47574;52.090;5.244;2023-08-20T12:28:12;4.8;;;0.8;;
61675;SDS011;47574;52.090;5.244;2023-08-20T12:29:48;2.4;;;0.8;;
61675;SDS011;47574;52.090;5.244;2023-08-20T12:31:25;2.8;;;0.8;;
61675;SDS011;47574;52.090;5.244;2023-08-20T12:33:02;2.6;;;0.7;;
61675;SDS011;47574;52.090;5.244;2023-08-20T12:36:17;2.6;;;0.9;;
61675;SDS011;47574;52.090;5.244;2023-08-20T12:37:54;3.6;;;1.0;;
61675;SDS011;47574;52.090;5.244;2023-08-20T12:39:30;4.41;;;0.9;;
61675;SDS011;47574;52.090;5.244;2023-08-20T12:42:44;2.5;;;0.8;;
61675;SDS011;47574;52.090;5.244;2023-08-20T12:44:21;3.0;;;0.8;;
61675;SDS011;47574;52.090;5.244;2023-08-20T12:45:58;2.9;;;0.7;;
61675;SDS011;47574;52.090;5.244;2023-08-20T12:49:12;2.6;;;0.9;;
61675;SDS011;47574;52.090;5.244;2023-08-20T12:50:48;1.9;;;0.7;;
61675;SDS011;47574;52.090;5.244;2023-08-20T12:52:26;3.8;;;0.9;;
61675;SDS011;47574;52.090;5.244;2023-08-20T12:54:02;2.5;;;0.8;;
61675;SDS011;47574;52.090;5.244;2023-08-20T12:57:16;1.9;;;0.7;;
61675;SDS011;47574;52.090;5.244;2023-08-20T12:58:54;2.5;;;0.8;;